Time;durP1;ratioP1;P1;durP2;ratioP2;P2;SDS_P1;SDS_P2;PMS_P1;PMS_P2;Temp;Humidity;BMP_temperature;BMP_pressure;BME280_temperature;BME280_humidity;BME280_pressure;Samples;Min_cycle;Max_cycle;Signal;HPM_P1;HPM_P2
2023/07/19 00:00:39;;;;;;;9.57;6.95;;;;;;;-141.97;42.12;47324.97;5053922;28;20335;-79
2023/07/19 00:03:04;;;;;;;8.25;6.60;;;;;;;-141.97;42.19;47301.91;5052017;28;20289;-78
2023/07/19 00:05:30;;;;;;;8.07;6.25;;;;;;;-141.97;42.14;47326.88;5053396;28;20224;-79
2023/07/19 00:07:56;;;;;;;9.23;6.20;;;;;;;-141.97;42.15;47338.41;5052890;28;20559;-78
2023/07/19 00:10:22;;;;;;;8.70;6.60;;;;;;;-141.97;42.06;47319.19;5053211;28;20185;-77
2023/07/19 00:12:47;;;;;;;11.25;6.80;;;;;;;-141.97;41.97;47336.50;5053407;28;20658;-80
2023/07/19 00:15:13;;;;;;;9.95;7.13;;;;;;;-141.97;41.93;47301.91;5054129;28;20176;-79
2023/07/19 00:17:38;;;;;;;8.75;6.90;;;;;;;-141.97;42.00;47351.88;5052239;28;20332;-77
2023/07/19 00:20:04;;;;;;;8.50;6.72;;;;;;;-141.97;41.89;47415.28;5052215;28;20254;-78
2023/07/19 00:22:31;;;;;;;10.38;6.70;;;;;;;-141.97;42.42;47311.50;5057041;28;20196;-78
2023/07/19 00:24:57;;;;;;;7.60;6.30;;;;;;;-141.97;42.70;47419.13;5054365;28;20209;-78
2023/07/19 00:27:22;;;;;;;8.77;6.63;;;;;;;-141.97;42.45;47311.50;5052990;28;20258;-79
2023/07/19 00:29:48;;;;;;;9.68;6.97;;;;;;;-141.97;42.62;47334.56;5051945;28;20232;-79
2023/07/19 00:32:13;;;;;;;11.07;6.38;;;;;;;-141.97;42.93;47280.75;5051839;28;20257;-79
2023/07/19 00:34:38;;;;;;;11.05;6.80;;;;;;;-141.97;42.95;47336.50;5052162;28;20209;-78
2023/07/19 00:37:04;;;;;;;7.75;6.10;;;;;;;-141.97;43.00;47307.66;5051825;28;20620;-77
2023/07/19 00:39:29;;;;;;;8.25;6.30;;;;;;;-141.97;43.00;47353.78;5052188;28;20320;-78
2023/07/19 00:41:56;;;;;;;8.93;6.43;;;;;;;-141.97;42.69;47342.25;5052554;28;20236;-78
2023/07/19 00:44:22;;;;;;;9.40;6.80;;;;;;;-141.97;43.09;47315.34;5041207;28;20261;-77
2023/07/19 00:46:48;;;;;;;10.50;7.80;;;;;;;-141.97;43.39;47361.47;5052074;28;20705;-77
2023/07/19 00:49:13;;;;;;;12.82;7.57;;;;;;;-141.97;43.52;47323.03;5053347;28;20165;-77
2023/07/19 00:51:39;;;;;;;10.32;7.47;;;;;;;-141.97;43.87;47367.25;5053265;28;20221;-79
2023/07/19 00:54:07;;;;;;;11.65;7.43;;;;;;;-141.97;44.01;47323.03;5053436;28;20251;-79
2023/07/19 00:56:32;;;;;;;11.27;7.15;;;;;;;-141.97;44.38;47334.56;5053479;28;20244;-79
2023/07/19 00:58:59;;;;;;;9.80;6.75;;;;;;;-141.97;44.85;47323.03;5053562;28;20672;-79
2023/07/19 01:01:26;;;;;;;9.18;6.82;;;;;;;-141.97;44.80;47296.13;5053230;28;20284;-79
2023/07/19 01:03:51;;;;;;;9.05;6.90;;;;;;;-141.97;44.88;47355.72;5052807;28;20160;-79
2023/07/19 01:06:18;;;;;;;8.52;6.60;;;;;;;-141.97;45.14;47311.50;5053170;28;20195;-79
2023/07/19 01:08:43;;;;;;;9.00;6.85;;;;;;;-141.97;45.40;47315.34;5053325;28;20217;-79
2023/07/19 01:11:09;;;;;;;7.90;6.55;;;;;;;-141.97;45.49;47374.94;5053101;28;20160;-79
2023/07/19 01:13:35;;;;;;;9.93;6.63;;;;;;;-141.97;45.72;47346.09;5053191;28;20169;-79
2023/07/19 01:16:00;;;;;;;7.05;6.35;;;;;;;-141.97;45.67;47398.00;5049044;28;20192;-79
2023/07/19 01:18:26;;;;;;;9.57;6.68;;;;;;;-141.97;45.72;47371.09;5051808;28;20190;-79
2023/07/19 01:20:52;;;;;;;9.30;6.50;;;;;;;-141.97;45.69;47338.41;5051538;28;20213;-79
2023/07/19 01:23:17;;;;;;;8.15;6.38;;;;;;;-141.97;45.66;47373.00;5052110;28;20184;-79
2023/07/19 01:25:43;;;;;;;8.40;6.68;;;;;;;-141.97;45.52;47357.63;5051842;28;20199;-78
2023/07/19 01:28:08;;;;;;;7.43;6.40;;;;;;;-141.97;45.34;47338.41;5049928;28;20219;-78
2023/07/19 01:30:34;;;;;;;9.20;7.05;;;;;;;-141.97;45.27;47365.31;5052044;28;20631;-78
2023/07/19 01:32:59;;;;;;;10.23;6.40;;;;;;;-141.97;45.19;47365.31;5051864;28;20188;-79
2023/07/19 01:35:25;;;;;;;9.10;6.50;;;;;;;-141.97;45.35;47378.78;5050402;28;20175;-80
2023/07/19 01:37:50;;;;;;;8.93;6.63;;;;;;;-141.97;45.11;47371.09;5051211;28;20184;-80
2023/07/19 01:40:16;;;;;;;8.85;6.75;;;;;;;-141.97;45.16;47342.25;5051730;28;20196;-79
2023/07/19 01:42:41;;;;;;;8.52;6.38;;;;;;;-141.97;45.42;47367.25;5052418;28;20184;-79
2023/07/19 01:45:07;;;;;;;7.70;6.60;;;;;;;-141.97;45.67;47326.88;5050361;28;20187;-77
2023/07/19 01:47:33;;;;;;;9.95;6.95;;;;;;;-141.97;45.74;47353.78;5038279;28;20308;-78
2023/07/19 01:49:59;;;;;;;8.95;7.03;;;;;;;-141.97;45.95;47396.06;5052767;28;20196;-78
2023/07/19 01:52:24;;;;;;;9.93;6.63;;;;;;;-141.97;46.16;47384.53;5051514;28;20679;-79
2023/07/19 01:54:50;;;;;;;7.57;6.70;;;;;;;-141.97;46.16;47371.09;5052565;28;20183;-79
2023/07/19 01:57:15;;;;;;;9.88;6.80;;;;;;;-141.97;46.04;47326.88;5050702;28;20201;-79
2023/07/19 01:59:41;;;;;;;10.02;7.03;;;;;;;-141.97;45.95;47332.66;5052270;28;20633;-79
2023/07/19 02:02:06;;;;;;;8.63;6.82;;;;;;;-141.97;46.05;47346.09;5051661;28;20177;-79
2023/07/19 02:04:31;;;;;;;8.23;6.63;;;;;;;-141.97;46.46;47363.41;5051146;28;20285;-79
2023/07/19 02:06:57;;;;;;;9.93;6.95;;;;;;;-141.97;46.29;47338.41;5051514;28;20178;-79
2023/07/19 02:09:23;;;;;;;8.68;6.90;;;;;;;-141.97;46.45;47323.03;5051876;28;20694;-79
2023/07/19 02:11:48;;;;;;;8.82;7.20;;;;;;;-141.97;46.47;47371.09;5051512;28;20254;-79
2023/07/19 02:14:14;;;;;;;8.65;7.07;;;;;;;-141.97;46.47;47357.63;5051815;28;20532;-79
2023/07/19 02:16:39;;;;;;;10.88;7.65;;;;;;;-141.97;46.39;47371.09;5052134;28;20258;-79
2023/07/19 02:19:05;;;;;;;8.38;6.97;;;;;;;-141.97;46.50;47340.34;5052908;28;20173;-80
2023/07/19 02:21:31;;;;;;;8.80;7.22;;;;;;;-141.97;46.34;47396.06;5052619;28;20750;-78
2023/07/19 02:23:57;;;;;;;11.27;7.00;;;;;;;-141.97;46.30;47346.09;5052924;28;20162;-78
2023/07/19 02:26:23;;;;;;;9.88;7.00;;;;;;;-141.97;46.45;47359.56;5052610;28;20533;-78
2023/07/19 02:28:49;;;;;;;9.38;6.78;;;;;;;-141.97;46.01;47367.25;5052550;28;20171;-79
2023/07/19 02:31:14;;;;;;;13.88;7.28;;;;;;;-141.97;46.13;47376.84;5052245;28;20163;-79
2023/07/19 02:33:39;;;;;;;11.15;7.20;;;;;;;-141.97;46.52;47373.00;5048039;28;20725;-78
2023/07/19 02:36:05;;;;;;;10.27;7.78;;;;;;;-141.97;46.89;47357.63;5051331;28;20181;-79
2023/07/19 02:38:31;;;;;;;9.73;7.45;;;;;;;-141.97;46.42;47361.47;5049469;28;20542;-78
2023/07/19 02:41:01;;;;;;;9.77;7.22;;;;;;;-141.97;46.56;47340.34;5051893;28;20755;-77
2023/07/19 02:43:27;;;;;;;12.23;7.28;;;;;;;-141.97;46.35;47351.88;5052556;28;20195;-79
2023/07/19 02:45:53;;;;;;;10.68;8.05;;;;;;;-141.97;46.53;47365.31;5058630;28;20225;-75
2023/07/19 02:48:19;;;;;;;9.75;7.45;;;;;;;-141.97;46.76;47357.63;5041265;28;20229;-78
2023/07/19 02:50:49;;;;;;;9.40;7.18;;;;;;;-141.97;46.62;47398.00;5051022;28;20174;-79
2023/07/19 02:53:14;;;;;;;12.18;7.78;;;;;;;-141.97;46.65;47278.84;5051382;28;20186;-79
2023/07/19 02:55:43;;;;;;;10.77;7.43;;;;;;;-141.97;46.36;47346.09;5051722;28;20193;-78
2023/07/19 02:58:08;;;;;;;14.02;7.95;;;;;;;-141.97;46.64;47409.53;5051914;28;20188;-79
2023/07/19 03:00:34;;;;;;;9.23;7.10;;;;;;;-141.97;46.63;47373.00;5047616;28;20202;-79
2023/07/19 03:02:59;;;;;;;10.38;7.57;;;;;;;-141.97;46.27;47411.44;5049536;28;20198;-79
2023/07/19 03:05:24;;;;;;;10.60;7.60;;;;;;;-141.97;46.11;47363.41;5051412;28;20170;-76
2023/07/19 03:07:51;;;;;;;9.00;7.47;;;;;;;-141.97;46.36;47390.31;5048570;28;20560;-76
2023/07/19 03:10:16;;;;;;;10.95;7.72;;;;;;;-141.97;46.21;47373.00;5050444;28;20644;-76
2023/07/19 03:12:42;;;;;;;9.73;7.85;;;;;;;-141.97;46.18;47371.09;5048500;28;20194;-76
2023/07/19 03:15:08;;;;;;;12.25;7.90;;;;;;;-141.97;46.13;47373.00;5048740;28;20179;-76
2023/07/19 03:17:34;;;;;;;9.65;7.68;;;;;;;-141.97;46.25;47353.78;5049742;28;20207;-76
2023/07/19 03:19:59;;;;;;;11.20;8.00;;;;;;;-141.97;45.84;47380.69;5049890;28;20243;-76
2023/07/19 03:22:25;;;;;;;15.15;9.10;;;;;;;-141.97;46.01;47319.19;5048671;28;20213;-76
2023/07/19 03:24:50;;;;;;;17.30;9.20;;;;;;;-141.97;46.32;47407.59;5050533;28;20183;-76
2023/07/19 03:27:15;;;;;;;14.90;8.82;;;;;;;-141.97;46.44;47338.41;5050168;28;20191;-75
2023/07/19 03:29:41;;;;;;;13.82;8.93;;;;;;;-141.97;46.34;47357.63;5050310;28;20171;-77
2023/07/19 03:32:07;;;;;;;14.38;8.70;;;;;;;-141.97;46.53;47380.69;5049767;28;20191;-77
2023/07/19 03:34:34;;;;;;;11.65;8.63;;;;;;;-141.97;46.33;47369.16;5049201;28;20213;-76
2023/07/19 03:36:59;;;;;;;16.42;8.23;;;;;;;-141.97;46.19;47388.38;5049543;28;20172;-77
2023/07/19 03:39:25;;;;;;;11.82;8.13;;;;;;;-141.97;46.69;47319.19;5049144;28;20181;-76
2023/07/19 03:41:50;;;;;;;22.60;9.13;;;;;;;-141.97;47.18;47407.59;5049501;28;20248;-75
2023/07/19 03:44:17;;;;;;;14.10;8.07;;;;;;;-141.97;47.04;47359.56;5047221;28;20191;-76
2023/07/19 03:46:42;;;;;;;17.63;9.45;;;;;;;-141.97;46.94;47369.16;5049406;28;20243;-75
2023/07/19 03:49:08;;;;;;;17.25;9.00;;;;;;;-141.97;47.21;47373.00;5038353;28;20247;-76
2023/07/19 03:51:33;;;;;;;17.50;8.90;;;;;;;-141.97;46.92;47365.31;5050278;28;20166;-76
2023/07/19 03:53:58;;;;;;;12.00;7.72;;;;;;;-141.97;46.57;47357.63;5050459;28;20558;-76
2023/07/19 03:56:24;;;;;;;12.23;8.65;;;;;;;-141.97;46.76;47388.38;5048960;28;20184;-76
2023/07/19 03:58:49;;;;;;;10.77;7.60;;;;;;;-141.97;46.67;47365.31;5050961;28;20179;-76
2023/07/19 04:01:15;;;;;;;11.93;7.75;;;;;;;-141.97;46.64;47346.09;5049917;28;20223;-76
2023/07/19 04:03:41;;;;;;;12.15;8.15;;;;;;;-141.97;46.73;47390.31;5050001;28;20211;-76
2023/07/19 04:06:09;;;;;;;10.43;7.78;;;;;;;-141.97;46.83;47363.41;5050528;28;20193;-77
2023/07/19 04:08:35;;;;;;;11.05;8.00;;;;;;;-141.97;46.69;47428.75;5051080;28;20387;-77
2023/07/19 04:11:00;;;;;;;12.63;8.52;;;;;;;-141.97;46.58;47367.25;5049826;28;20603;-76
2023/07/19 04:13:29;;;;;;;11.73;7.85;;;;;;;-141.97;46.56;47371.09;5050368;28;20173;-76
2023/07/19 04:15:55;;;;;;;11.82;7.80;;;;;;;-141.97;46.66;47386.47;5050119;28;20272;-76
2023/07/19 04:18:20;;;;;;;13.35;7.80;;;;;;;-141.97;46.33;47380.69;5050029;28;20275;-77
2023/07/19 04:20:45;;;;;;;12.38;7.93;;;;;;;-141.97;46.16;47401.84;5047915;28;20205;-76
2023/07/19 04:23:11;;;;;;;17.17;7.80;;;;;;;-141.97;46.10;47384.53;5048001;28;20189;-76
2023/07/19 04:25:37;;;;;;;15.00;7.90;;;;;;;-141.97;45.63;47353.78;5048801;28;20192;-77
2023/07/19 04:28:03;;;;;;;22.98;9.20;;;;;;;-141.97;45.51;47384.53;5048526;28;20180;-77
2023/07/19 04:30:28;;;;;;;18.25;8.55;;;;;;;-141.97;45.50;47342.25;5050337;28;20190;-76
2023/07/19 04:32:55;;;;;;;14.65;7.93;;;;;;;-141.97;45.28;47371.09;5048121;28;20190;-76
2023/07/19 04:35:23;;;;;;;15.32;7.90;;;;;;;-141.97;45.14;47355.72;5049024;28;20190;-76
2023/07/19 04:37:49;;;;;;;10.77;7.25;;;;;;;-141.97;44.99;47373.00;5049640;28;20217;-76
2023/07/19 04:40:16;;;;;;;9.70;7.28;;;;;;;-141.97;44.68;47369.16;5053015;28;20264;-76
2023/07/19 04:42:41;;;;;;;11.77;7.40;;;;;;;-141.97;44.66;47409.53;5053139;28;20180;-76
2023/07/19 04:45:08;;;;;;;11.48;7.18;;;;;;;-141.97;44.59;47346.09;5053937;28;20652;-76
2023/07/19 04:47:33;;;;;;;11.15;6.85;;;;;;;-141.97;43.72;47351.88;5052530;28;20317;-76
2023/07/19 04:49:59;;;;;;;20.88;7.63;;;;;;;-141.97;44.16;47336.50;5040954;28;20910;-76
2023/07/19 04:52:24;;;;;;;10.77;6.55;;;;;;;-141.97;43.59;47374.94;5051313;28;20259;-75
2023/07/19 04:54:49;;;;;;;13.65;7.50;;;;;;;-141.97;43.09;47330.72;5051486;28;20514;-75
2023/07/19 04:57:16;;;;;;;12.20;6.90;;;;;;;-141.97;43.07;47353.78;5052383;28;20680;-75
2023/07/19 04:59:41;;;;;;;10.50;7.28;;;;;;;-141.97;42.98;47255.78;5050382;28;20192;-75
2023/07/19 05:02:07;;;;;;;10.45;7.18;;;;;;;-141.97;42.83;47315.34;5054672;28;20179;-76
2023/07/19 05:04:33;;;;;;;13.52;7.05;;;;;;;-141.97;42.55;47323.03;5054338;28;20267;-75
2023/07/19 05:06:59;;;;;;;10.85;6.55;;;;;;;-141.97;42.34;47298.06;5055081;28;20268;-75
2023/07/19 05:09:24;;;;;;;13.70;7.22;;;;;;;-141.97;42.60;47321.13;5052442;28;20186;-76
2023/07/19 05:11:50;;;;;;;14.07;7.32;;;;;;;-141.97;42.43;47311.50;5052394;28;20178;-75
2023/07/19 05:14:15;;;;;;;12.48;8.20;;;;;;;-141.97;42.24;47323.03;5052411;28;20274;-75
2023/07/19 05:16:41;;;;;;;9.75;7.57;;;;;;;-141.97;42.27;47286.53;5053019;28;20189;-76
2023/07/19 05:19:06;;;;;;;10.88;7.28;;;;;;;-141.97;42.18;47328.81;5052686;28;20253;-75
2023/07/19 05:21:31;;;;;;;11.82;7.57;;;;;;;-141.97;41.36;47305.75;5052878;28;20680;-75
2023/07/19 05:23:57;;;;;;;11.73;7.72;;;;;;;-141.97;41.59;47326.88;5054438;28;20185;-75
2023/07/19 05:26:24;;;;;;;10.65;7.50;;;;;;;-141.97;40.93;47276.91;5055466;28;20264;-75
2023/07/19 05:28:49;;;;;;;10.25;7.43;;;;;;;-141.97;40.86;47299.97;5056303;28;20187;-75
2023/07/19 05:31:15;;;;;;;9.20;7.28;;;;;;;-141.97;40.55;47309.59;5053804;28;20254;-75
2023/07/19 05:33:40;;;;;;;8.88;6.93;;;;;;;-141.97;40.17;47334.56;5056170;28;20646;-75
2023/07/19 05:36:09;;;;;;;12.00;7.00;;;;;;;-141.97;40.22;47321.13;5055419;28;20275;-75
2023/07/19 05:38:35;;;;;;;15.57;7.35;;;;;;;-141.97;40.17;47294.22;5053961;28;20184;-77
2023/07/19 05:41:03;;;;;;;10.00;7.25;;;;;;;-141.97;40.05;47313.44;5051754;28;20198;-77
2023/07/19 05:43:31;;;;;;;7.55;6.43;;;;;;;-141.97;39.42;47407.59;5051841;28;20179;-75
2023/07/19 05:46:03;;;;;;;9.52;6.78;;;;;;;-141.97;38.75;47317.28;5054883;28;20226;-75
2023/07/19 05:48:29;;;;;;;8.15;6.47;;;;;;;-141.97;38.45;47309.59;5052405;28;20606;-75
2023/07/19 05:50:55;;;;;;;11.57;6.80;;;;;;;-141.97;38.68;47313.44;5048272;28;20220;-76
2023/07/19 05:53:20;;;;;;;8.63;6.82;;;;;;;-141.97;37.91;47296.13;5058175;28;20191;-75
2023/07/19 05:55:45;;;;;;;8.57;6.50;;;;;;;-141.97;38.48;47292.28;5052585;28;20691;-75
2023/07/19 05:58:11;;;;;;;8.43;6.85;;;;;;;-141.97;39.02;47309.59;5053888;28;20300;-76
2023/07/19 06:00:37;;;;;;;8.65;6.90;;;;;;;-141.97;38.75;47305.75;5052902;28;20219;-75
2023/07/19 06:03:02;;;;;;;10.57;6.85;;;;;;;-141.97;38.37;47278.84;5051282;28;20274;-75
2023/07/19 06:05:28;;;;;;;13.93;7.55;;;;;;;-141.97;38.33;47286.53;5051082;28;20233;-75
2023/07/19 06:07:53;;;;;;;11.93;7.50;;;;;;;-141.97;38.10;47253.84;5052409;28;20520;-75
2023/07/19 06:10:19;;;;;;;9.75;6.82;;;;;;;-141.97;37.92;47261.53;5049491;28;20188;-75
2023/07/19 06:12:45;;;;;;;12.30;6.97;;;;;;;-141.97;38.08;47303.81;5050636;28;20362;-75
2023/07/19 06:15:11;;;;;;;11.43;7.15;;;;;;;-141.97;38.24;47338.41;5050633;28;20190;-75
2023/07/19 06:17:36;;;;;;;13.50;7.40;;;;;;;-141.97;37.34;47278.84;5052361;28;20236;-75
2023/07/19 06:20:04;;;;;;;11.05;6.82;;;;;;;-141.97;37.03;47230.78;5051483;28;20657;-75
2023/07/19 06:22:30;;;;;;;9.05;6.60;;;;;;;-141.97;36.93;47332.66;5051761;28;20500;-75
2023/07/19 06:24:57;;;;;;;20.60;8.00;;;;;;;-141.97;36.93;47284.59;5051398;28;20239;-74
2023/07/19 06:27:22;;;;;;;12.02;7.80;;;;;;;-141.97;36.91;47236.56;5051520;28;20200;-75
2023/07/19 06:29:48;;;;;;;9.07;7.22;;;;;;;-141.97;37.08;47284.59;5050082;28;20240;-75
2023/07/19 06:32:13;;;;;;;15.15;7.60;;;;;;;-141.97;36.85;47242.31;5051243;28;20169;-75
2023/07/19 06:34:39;;;;;;;11.77;7.22;;;;;;;-141.97;36.75;47200.03;5051393;28;20177;-74
2023/07/19 06:37:04;;;;;;;13.77;7.20;;;;;;;-141.97;37.32;47301.91;5050827;28;20281;-75
2023/07/19 06:39:30;;;;;;;9.05;7.00;;;;;;;-141.97;37.40;47344.19;5052183;28;20334;-74
2023/07/19 06:41:55;;;;;;;8.98;6.90;;;;;;;-141.97;36.94;47271.16;5051717;28;20192;-75
2023/07/19 06:44:20;;;;;;;9.02;7.40;;;;;;;-141.97;36.65;47288.44;5051789;28;20589;-76
2023/07/19 06:46:46;;;;;;;8.85;6.60;;;;;;;-141.97;36.56;47257.69;5051313;28;20239;-75
2023/07/19 06:49:11;;;;;;;8.75;7.00;;;;;;;-141.97;36.33;47253.84;5051630;28;20536;-75
2023/07/19 06:51:37;;;;;;;9.77;7.20;;;;;;;-141.97;35.58;47228.88;5051126;28;20157;-75
2023/07/19 06:54:02;;;;;;;11.68;6.85;;;;;;;-141.97;35.44;47251.94;5051095;28;20170;-75
2023/07/19 06:56:27;;;;;;;8.13;6.60;;;;;;;-141.97;35.34;47275.00;5050987;28;20166;-75
2023/07/19 06:58:53;;;;;;;9.75;6.80;;;;;;;-141.97;34.83;47230.78;5051753;28;20212;-75
2023/07/19 07:01:18;;;;;;;11.07;6.72;;;;;;;-141.97;34.66;47230.78;5050823;28;20556;-75
2023/07/19 07:03:44;;;;;;;10.93;7.22;;;;;;;-141.97;34.51;47201.97;5050871;28;20153;-75
2023/07/19 07:06:09;;;;;;;9.70;6.90;;;;;;;-141.97;34.18;47207.72;5050778;28;20241;-75
2023/07/19 07:08:34;;;;;;;10.43;7.53;;;;;;;-141.97;34.30;47232.72;5051004;28;20168;-75
2023/07/19 07:11:01;;;;;;;8.73;7.00;;;;;;;-141.97;34.00;47234.63;5050814;28;20181;-75
2023/07/19 07:13:27;;;;;;;8.63;7.18;;;;;;;-141.97;33.37;47294.22;5050200;28;20510;-75
2023/07/19 07:15:52;;;;;;;9.60;6.90;;;;;;;-141.97;33.45;47207.72;5050262;28;20238;-75
2023/07/19 07:18:18;;;;;;;9.20;6.57;;;;;;;-141.97;33.29;47215.41;5050563;28;20537;-75
2023/07/19 07:20:43;;;;;;;7.30;6.25;;;;;;;-141.97;33.08;47219.25;5050521;28;20673;-75
2023/07/19 07:23:09;;;;;;;8.88;6.70;;;;;;;-141.97;32.84;47192.34;5044250;28;20170;-75
2023/07/19 07:25:35;;;;;;;8.55;7.70;;;;;;;-141.97;32.73;47196.19;5040583;28;20192;-75
2023/07/19 07:28:01;;;;;;;12.43;9.90;;;;;;;-141.97;32.37;47165.44;5038294;28;20716;-75
2023/07/19 07:30:27;;;;;;;9.38;6.53;;;;;;;-141.97;32.46;47203.88;5008842;28;20288;-76
2023/07/19 07:32:52;;;;;;;9.07;7.30;;;;;;;-141.97;32.24;47157.75;5048996;28;20189;-76
2023/07/19 07:35:18;;;;;;;7.63;6.50;;;;;;;-141.97;32.21;47217.34;5045979;28;20620;-75
2023/07/19 07:37:43;;;;;;;11.05;6.75;;;;;;;-141.97;31.73;47163.53;5048834;28;20192;-75
2023/07/19 07:40:10;;;;;;;7.32;6.47;;;;;;;-141.97;32.15;47223.09;5048857;28;20300;-75
2023/07/19 07:42:37;;;;;;;8.60;6.47;;;;;;;-141.97;31.35;47155.84;5049548;28;20602;-74
2023/07/19 07:45:03;;;;;;;8.73;6.43;;;;;;;-141.97;31.38;47173.13;5049031;28;20673;-76
2023/07/19 07:47:28;;;;;;;7.80;6.65;;;;;;;-141.97;30.99;47182.75;5049323;28;20209;-76
2023/07/19 07:49:55;;;;;;;8.68;6.28;;;;;;;-141.97;30.72;47161.59;5050016;28;20264;-75
2023/07/19 07:52:21;;;;;;;8.30;6.65;;;;;;;-141.97;30.70;47169.28;5048270;28;20184;-75
2023/07/19 07:54:48;;;;;;;9.15;6.25;;;;;;;-141.97;30.10;47136.63;5049708;28;20533;-76
2023/07/19 07:57:14;;;;;;;8.60;6.68;;;;;;;-141.97;30.49;47171.22;5047744;28;20172;-76
2023/07/19 07:59:39;;;;;;;11.80;6.82;;;;;;;-141.97;30.31;47167.38;5048008;28;20189;-76
2023/07/19 08:02:06;;;;;;;8.13;7.18;;;;;;;-141.97;30.15;47155.84;5049139;28;20212;-75
2023/07/19 08:04:31;;;;;;;7.72;6.65;;;;;;;-141.97;29.85;47146.22;5048803;28;20239;-76
2023/07/19 08:06:57;;;;;;;8.10;6.47;;;;;;;-141.97;29.79;47176.97;5047746;28;20185;-76
2023/07/19 08:09:22;;;;;;;7.38;6.18;;;;;;;-141.97;29.27;47255.78;5047496;28;20189;-75
2023/07/19 08:11:48;;;;;;;11.38;8.10;;;;;;;-141.97;30.32;47330.72;5048573;28;20192;-76
2023/07/19 08:14:14;;;;;;;10.38;6.53;;;;;;;-141.97;30.40;47173.13;5050981;28;20234;-76
2023/07/19 08:16:39;;;;;;;9.00;6.32;;;;;;;-141.97;30.30;47125.09;5052060;28;20251;-76
2023/07/19 08:19:04;;;;;;;11.75;6.90;;;;;;;-141.97;30.37;47115.47;5052677;28;20164;-76
2023/07/19 08:21:30;;;;;;;8.55;6.60;;;;;;;-141.97;30.03;47142.38;5051059;28;20626;-76
2023/07/19 08:23:55;;;;;;;7.88;6.60;;;;;;;-141.97;30.15;47159.69;5050991;28;20181;-75
2023/07/19 08:26:24;;;;;;;8.90;6.70;;;;;;;-141.97;29.69;47134.69;5047004;28;20588;-77
2023/07/19 08:28:49;;;;;;;10.10;6.45;;;;;;;-141.97;29.78;47140.47;5040441;28;20217;-76
2023/07/19 08:31:16;;;;;;;8.18;7.05;;;;;;;-141.97;29.47;47128.94;5052127;28;20192;-76
2023/07/19 08:33:41;;;;;;;10.02;7.03;;;;;;;-141.97;29.88;47159.69;5050080;28;20231;-75
2023/07/19 08:36:07;;;;;;;24.33;20.75;;;;;;;-141.97;29.46;47176.97;5051882;28;20212;-76
2023/07/19 08:38:34;;;;;;;11.35;7.10;;;;;;;-141.97;28.99;47130.84;5051650;28;20239;-77
2023/07/19 08:41:02;;;;;;;11.07;8.10;;;;;;;-141.97;29.47;47123.16;5052161;28;20205;-75
2023/07/19 08:43:28;;;;;;;11.10;8.45;;;;;;;-141.97;29.28;47165.44;5050861;28;20284;-75
2023/07/19 08:45:57;;;;;;;7.97;6.40;;;;;;;-141.97;30.02;47165.44;5052286;28;20220;-76
2023/07/19 08:48:22;;;;;;;7.80;6.55;;;;;;;-141.97;30.35;47184.66;5052757;28;20185;-76
2023/07/19 08:51:00;;;;;;;8.88;6.63;;;;;;;-141.97;29.87;47288.44;5052387;28;20336;-76
2023/07/19 08:53:26;;;;;;;7.03;6.13;;;;;;;-141.97;30.00;47169.28;5051039;28;20648;-77
2023/07/19 08:55:58;;;;;;;7.13;6.05;;;;;;;-141.97;29.44;47146.22;5052436;28;20196;-77
2023/07/19 08:58:23;;;;;;;8.35;6.50;;;;;;;-141.97;29.62;47142.38;5051773;28;20195;-76
2023/07/19 09:00:49;;;;;;;9.00;6.07;;;;;;;-141.97;29.37;47123.16;5051860;28;20635;-75
2023/07/19 09:03:18;;;;;;;8.07;6.40;;;;;;;-141.97;28.55;47088.56;5051467;28;20182;-78
2023/07/19 09:05:46;;;;;;;7.88;6.07;;;;;;;-141.97;28.63;47144.31;5050657;28;20196;-79
2023/07/19 09:08:13;;;;;;;7.63;5.78;;;;;;;-141.97;28.06;47103.94;5051581;28;20185;-77
2023/07/19 09:10:43;;;;;;;7.97;6.30;;;;;;;-141.97;29.28;47169.28;5048428;28;20185;-78
2023/07/19 09:13:09;;;;;;;7.35;6.28;;;;;;;-141.97;29.15;47140.47;5051038;28;20189;-78
2023/07/19 09:15:35;;;;;;;6.65;5.95;;;;;;;-141.97;29.53;47161.59;5051406;28;20546;-77
2023/07/19 09:18:04;;;;;;;9.82;6.70;;;;;;;-141.97;29.01;47176.97;5052041;28;20188;-78
2023/07/19 09:20:29;;;;;;;8.80;6.57;;;;;;;-141.97;28.59;47269.22;5051223;28;20228;-77
2023/07/19 09:22:57;;;;;;;9.50;6.13;;;;;;;-141.97;27.91;47115.47;5051085;28;20554;-78
2023/07/19 09:25:23;;;;;;;9.18;6.18;;;;;;;-141.97;28.17;47157.75;5034798;28;20173;-78
2023/07/19 09:27:48;;;;;;;7.30;6.18;;;;;;;-141.97;28.07;47134.69;5051713;28;20181;-78
2023/07/19 09:30:14;;;;;;;7.30;5.75;;;;;;;-141.97;27.94;47121.25;5039520;28;20233;-77
2023/07/19 09:32:40;;;;;;;7.22;5.82;;;;;;;-141.97;27.75;47113.56;5050939;28;20263;-77
2023/07/19 09:35:07;;;;;;;9.13;6.63;;;;;;;-141.97;27.68;47128.94;5048900;28;20184;-78
2023/07/19 09:37:33;;;;;;;8.45;5.38;;;;;;;-141.97;27.42;47130.84;5050960;28;20170;-78
2023/07/19 09:40:02;;;;;;;8.52;5.78;;;;;;;-141.97;27.29;47121.25;5050694;28;20508;-78
2023/07/19 09:42:32;;;;;;;7.25;5.65;;;;;;;-141.97;27.26;47102.03;5050248;28;20285;-78
2023/07/19 09:44:59;;;;;;;6.80;5.40;;;;;;;-141.97;27.16;47115.47;5049453;28;20518;-78
2023/07/19 09:47:26;;;;;;;8.98;6.15;;;;;;;-141.97;27.74;47084.72;5049884;28;20283;-78
2023/07/19 09:49:53;;;;;;;8.52;5.68;;;;;;;-141.97;27.42;47103.94;5049715;28;20197;-78
2023/07/19 09:52:19;;;;;;;6.50;5.60;;;;;;;-141.97;27.16;47088.56;5050472;28;20182;-77
2023/07/19 09:54:45;;;;;;;9.00;6.05;;;;;;;-141.97;27.11;47073.19;5050420;28;20180;-79
2023/07/19 09:57:11;;;;;;;10.18;5.82;;;;;;;-141.97;27.20;47096.25;5050120;28;20195;-78
2023/07/19 09:59:56;;;;;;;8.85;5.80;;;;;;;-141.97;27.56;47080.88;5049986;28;20591;-79
2023/07/19 10:02:22;;;;;;;9.55;5.85;;;;;;;-141.97;26.80;47084.72;5049063;28;20185;-79
2023/07/19 10:04:50;;;;;;;6.97;5.68;;;;;;;-141.97;26.97;47173.13;5049612;28;20193;-78
2023/07/19 10:07:26;;;;;;;7.95;5.90;;;;;;;-141.97;27.45;47130.84;5050515;28;20182;-78
2023/07/19 10:10:03;;;;;;;7.07;5.97;;;;;;;-141.97;28.17;47090.50;5048927;28;20601;-78
2023/07/19 10:12:28;;;;;;;7.35;5.90;;;;;;;-141.97;27.96;47146.22;5049928;28;20268;-78
2023/07/19 10:15:01;;;;;;;8.60;5.95;;;;;;;-141.97;27.42;47109.72;5050324;28;20682;-78
2023/07/19 10:17:29;;;;;;;6.30;5.70;;;;;;;-141.97;27.02;47128.94;5049144;28;20189;-78
2023/07/19 10:20:03;;;;;;;9.70;6.20;;;;;;;-141.97;27.42;47107.78;5048970;28;20243;-77
2023/07/19 10:22:57;;;;;;;8.07;5.97;;;;;;;-141.97;27.31;47088.56;5050610;28;20180;-77
2023/07/19 10:25:25;;;;;;;8.55;6.18;;;;;;;-141.97;27.07;47092.41;5041004;28;20189;-79
2023/07/19 10:28:10;;;;;;;6.25;5.65;;;;;;;-141.97;27.30;47080.88;5050336;28;20635;-78
2023/07/19 10:30:42;;;;;;;7.90;5.57;;;;;;;-141.97;26.82;47117.41;5030039;28;20261;-78
2023/07/19 10:33:08;;;;;;;8.80;6.03;;;;;;;-141.97;26.84;47084.72;5031393;28;20570;-77
2023/07/19 10:35:33;;;;;;;7.75;5.78;;;;;;;-141.97;26.76;47005.94;5029832;28;20182;-77
2023/07/19 10:37:59;;;;;;;6.47;5.57;;;;;;;-141.97;26.49;47109.72;5046479;28;20235;-78
2023/07/19 10:40:24;;;;;;;7.40;5.78;;;;;;;-141.97;26.50;47065.50;5050033;28;20181;-77
2023/07/19 10:42:49;;;;;;;8.07;5.35;;;;;;;-141.97;26.66;47096.25;5049631;28;20204;-78
2023/07/19 10:45:15;;;;;;;9.98;5.65;;;;;;;-141.97;26.81;47113.56;5049099;28;20167;-77
2023/07/19 10:47:41;;;;;;;8.65;5.75;;;;;;;-141.97;27.04;47096.25;5049638;28;20287;-77
2023/07/19 10:50:09;;;;;;;7.10;5.97;;;;;;;-141.97;26.87;47111.63;5050148;28;20165;-77
2023/07/19 10:52:34;;;;;;;8.07;6.00;;;;;;;-141.97;27.07;47080.88;5049715;28;20268;-79
2023/07/19 10:55:00;;;;;;;9.30;5.80;;;;;;;-141.97;26.49;47103.94;5049729;28;20168;-78
2023/07/19 10:57:27;;;;;;;7.40;6.00;;;;;;;-141.97;26.70;47057.81;5047945;28;20241;-77
2023/07/19 10:59:53;;;;;;;7.38;5.55;;;;;;;-141.97;26.59;47117.41;5049063;28;20789;-78
2023/07/19 11:02:19;;;;;;;6.78;6.07;;;;;;;-141.97;26.65;47082.81;5050593;28;20189;-79
2023/07/19 11:04:48;;;;;;;7.45;5.43;;;;;;;-141.97;26.06;47080.88;5048651;28;20205;-78
2023/07/19 11:07:14;;;;;;;6.32;5.50;;;;;;;-141.97;26.09;47063.59;5049750;28;20256;-78
2023/07/19 11:09:48;;;;;;;6.03;5.43;;;;;;;-141.97;25.83;47084.72;5050602;28;20181;-78